sensor_id;sensor_type;location;lat;lon;timestamp;P1;durP1;ratioP1;P2;durP2;ratioP2
39442;SDS011;25147;52.142;9.960;2023-03-25T00:00:14;1.45;;;0.77;;
39442;SDS011;25147;52.142;9.960;2023-03-25T00:02:43;3.85;;;1.30;;
39442;SDS011;25147;52.142;9.960;2023-03-25T00:05:10;1.50;;;0.85;;
39442;SDS011;25147;52.142;9.960;2023-03-25T00:07:38;3.03;;;1.00;;
39442;SDS011;25147;52.142;9.960;2023-03-25T00:10:05;4.35;;;0.80;;
39442;SDS011;25147;52.142;9.960;2023-03-25T00:12:33;2.92;;;0.90;;
39442;SDS011;25147;52.142;9.960;2023-03-25T00:15:00;3.28;;;0.85;;
39442;SDS011;25147;52.142;9.960;2023-03-25T00:17:28;1.80;;;1.25;;
39442;SDS011;25147;52.142;9.960;2023-03-25T00:19:55;1.13;;;0.93;;
39442;SDS011;25147;52.142;9.960;2023-03-25T00:22:22;2.05;;;0.95;;
39442;SDS011;25147;52.142;9.960;2023-03-25T00:24:48;1.50;;;1.15;;
39442;SDS011;25147;52.142;9.960;2023-03-25T00:27:16;4.28;;;1.10;;
39442;SDS011;25147;52.142;9.960;2023-03-25T00:29:43;3.50;;;1.25;;
39442;SDS011;25147;52.142;9.960;2023-03-25T00:32:12;1.90;;;0.95;;
39442;SDS011;25147;52.142;9.960;2023-03-25T00:34:41;3.15;;;1.10;;
39442;SDS011;25147;52.142;9.960;2023-03-25T00:37:11;2.33;;;1.02;;
39442;SDS011;25147;52.142;9.960;2023-03-25T00:39:41;1.95;;;1.20;;
39442;SDS011;25147;52.142;9.960;2023-03-25T00:42:08;2.90;;;0.80;;
39442;SDS011;25147;52.142;9.960;2023-03-25T00:44:38;2.63;;;1.00;;
39442;SDS011;25147;52.142;9.960;2023-03-25T00:47:04;3.40;;;0.90;;
39442;SDS011;25147;52.142;9.960;2023-03-25T00:49:33;1.80;;;1.00;;
39442;SDS011;25147;52.142;9.960;2023-03-25T00:51:59;2.85;;;1.20;;
39442;SDS011;25147;52.142;9.960;2023-03-25T00:54:26;5.20;;;1.02;;
39442;SDS011;25147;52.142;9.960;2023-03-25T00:56:52;2.03;;;1.08;;
39442;SDS011;25147;52.142;9.960;2023-03-25T00:59:19;5.55;;;1.20;;
39442;SDS011;25147;52.142;9.960;2023-03-25T01:01:46;3.03;;;1.13;;
39442;SDS011;25147;52.142;9.960;2023-03-25T01:04:12;3.97;;;1.27;;
39442;SDS011;25147;52.142;9.960;2023-03-25T01:06:42;3.03;;;1.55;;
39442;SDS011;25147;52.142;9.960;2023-03-25T01:09:09;2.70;;;1.00;;
39442;SDS011;25147;52.142;9.960;2023-03-25T01:11:38;2.47;;;0.98;;
39442;SDS011;25147;52.142;9.960;2023-03-25T01:14:10;1.55;;;0.90;;
39442;SDS011;25147;52.142;9.960;2023-03-25T01:16:39;1.80;;;1.02;;
39442;SDS011;25147;52.142;9.960;2023-03-25T01:19:05;3.13;;;0.98;;
39442;SDS011;25147;52.142;9.960;2023-03-25T01:21:32;4.05;;;1.15;;
39442;SDS011;25147;52.142;9.960;2023-03-25T01:24:01;1.95;;;0.88;;
39442;SDS011;25147;52.142;9.960;2023-03-25T01:26:28;1.52;;;0.90;;
39442;SDS011;25147;52.142;9.960;2023-03-25T01:28:55;0.90;;;0.60;;
39442;SDS011;25147;52.142;9.960;2023-03-25T01:31:22;1.33;;;0.68;;
39442;SDS011;25147;52.142;9.960;2023-03-25T01:33:50;1.98;;;0.75;;
39442;SDS011;25147;52.142;9.960;2023-03-25T01:36:16;2.50;;;0.80;;
39442;SDS011;25147;52.142;9.960;2023-03-25T01:38:45;4.30;;;1.58;;
39442;SDS011;25147;52.142;9.960;2023-03-25T01:41:13;1.88;;;0.95;;
39442;SDS011;25147;52.142;9.960;2023-03-25T01:43:39;2.83;;;1.02;;
39442;SDS011;25147;52.142;9.960;2023-03-25T01:46:08;2.17;;;1.05;;
39442;SDS011;25147;52.142;9.960;2023-03-25T01:48:38;2.95;;;1.00;;
39442;SDS011;25147;52.142;9.960;2023-03-25T01:51:08;1.80;;;1.02;;
39442;SDS011;25147;52.142;9.960;2023-03-25T01:53:38;1.75;;;1.10;;
39442;SDS011;25147;52.142;9.960;2023-03-25T01:56:06;2.58;;;1.05;;
39442;SDS011;25147;52.142;9.960;2023-03-25T01:58:37;2.42;;;0.90;;
39442;SDS011;25147;52.142;9.960;2023-03-25T02:01:05;2.15;;;1.20;;
39442;SDS011;25147;52.142;9.960;2023-03-25T02:03:35;2.50;;;0.95;;
39442;SDS011;25147;52.142;9.960;2023-03-25T02:06:03;1.90;;;0.80;;
39442;SDS011;25147;52.142;9.960;2023-03-25T02:08:36;4.07;;;0.77;;
39442;SDS011;25147;52.142;9.960;2023-03-25T02:11:05;2.85;;;1.00;;
39442;SDS011;25147;52.142;9.960;2023-03-25T02:13:33;2.47;;;1.27;;
39442;SDS011;25147;52.142;9.960;2023-03-25T02:16:08;2.13;;;1.10;;
39442;SDS011;25147;52.142;9.960;2023-03-25T02:18:47;2.17;;;1.00;;
39442;SDS011;25147;52.142;9.960;2023-03-25T02:21:30;1.52;;;0.90;;
39442;SDS011;25147;52.142;9.960;2023-03-25T02:24:24;2.58;;;1.10;;
39442;SDS011;25147;52.142;9.960;2023-03-25T02:27:19;3.63;;;1.40;;
39442;SDS011;25147;52.142;9.960;2023-03-25T02:33:36;1.40;;;1.00;;
39442;SDS011;25147;52.142;9.960;2023-03-25T02:39:28;2.08;;;1.10;;
39442;SDS011;25147;52.142;9.960;2023-03-25T02:42:01;1.60;;;1.00;;
39442;SDS011;25147;52.142;9.960;2023-03-25T02:44:34;1.08;;;0.88;;
39442;SDS011;25147;52.142;9.960;2023-03-25T02:47:06;2.15;;;1.05;;
39442;SDS011;25147;52.142;9.960;2023-03-25T02:49:35;2.22;;;1.17;;
39442;SDS011;25147;52.142;9.960;2023-03-25T02:52:06;3.20;;;1.10;;
39442;SDS011;25147;52.142;9.960;2023-03-25T02:54:38;2.55;;;1.20;;
39442;SDS011;25147;52.142;9.960;2023-03-25T02:57:09;3.83;;;0.88;;
39442;SDS011;25147;52.142;9.960;2023-03-25T02:59:40;2.42;;;1.30;;
39442;SDS011;25147;52.142;9.960;2023-03-25T03:02:10;2.08;;;1.05;;
39442;SDS011;25147;52.142;9.960;2023-03-25T03:04:43;3.58;;;1.42;;
39442;SDS011;25147;52.142;9.960;2023-03-25T03:07:14;2.85;;;1.20;;
39442;SDS011;25147;52.142;9.960;2023-03-25T03:09:48;3.45;;;1.15;;
39442;SDS011;25147;52.142;9.960;2023-03-25T03:12:21;4.00;;;1.60;;
39442;SDS011;25147;52.142;9.960;2023-03-25T03:15:04;1.83;;;1.02;;
39442;SDS011;25147;52.142;9.960;2023-03-25T03:17:39;4.53;;;1.40;;
39442;SDS011;25147;52.142;9.960;2023-03-25T03:20:16;2.55;;;1.13;;
39442;SDS011;25147;52.142;9.960;2023-03-25T03:22:50;6.97;;;1.58;;
39442;SDS011;25147;52.142;9.960;2023-03-25T03:25:28;3.75;;;1.35;;
39442;SDS011;25147;52.142;9.960;2023-03-25T03:27:59;2.65;;;1.50;;
39442;SDS011;25147;52.142;9.960;2023-03-25T03:30:31;6.88;;;2.03;;
39442;SDS011;25147;52.142;9.960;2023-03-25T03:33:10;2.55;;;1.23;;
39442;SDS011;25147;52.142;9.960;2023-03-25T03:35:46;4.28;;;1.25;;
39442;SDS011;25147;52.142;9.960;2023-03-25T03:38:16;2.45;;;1.42;;
39442;SDS011;25147;52.142;9.960;2023-03-25T03:40:48;3.63;;;1.35;;
39442;SDS011;25147;52.142;9.960;2023-03-25T03:43:18;3.30;;;1.27;;
39442;SDS011;25147;52.142;9.960;2023-03-25T03:45:50;7.88;;;1.58;;
39442;SDS011;25147;52.142;9.960;2023-03-25T03:48:22;3.50;;;1.13;;
39442;SDS011;25147;52.142;9.960;2023-03-25T03:50:52;4.40;;;1.52;;
39442;SDS011;25147;52.142;9.960;2023-03-25T03:53:25;1.65;;;1.08;;
39442;SDS011;25147;52.142;9.960;2023-03-25T03:55:58;5.50;;;1.23;;
39442;SDS011;25147;52.142;9.960;2023-03-25T03:58:32;2.83;;;1.10;;
39442;SDS011;25147;52.142;9.960;2023-03-25T04:01:03;7.53;;;1.50;;
39442;SDS011;25147;52.142;9.960;2023-03-25T04:03:35;4.63;;;1.40;;
39442;SDS011;25147;52.142;9.960;2023-03-25T04:06:10;4.75;;;1.50;;
39442;SDS011;25147;52.142;9.960;2023-03-25T04:08:44;2.15;;;1.30;;
39442;SDS011;25147;52.142;9.960;2023-03-25T04:11:19;5.38;;;1.25;;
39442;SDS011;25147;52.142;9.960;2023-03-25T04:13:49;4.40;;;1.48;;
39442;SDS011;25147;52.142;9.960;2023-03-25T04:16:19;5.15;;;2.05;;
39442;SDS011;25147;52.142;9.960;2023-03-25T04:18:48;4.32;;;1.70;;
39442;SDS011;25147;52.142;9.960;2023-03-25T04:21:17;3.35;;;1.23;;
39442;SDS011;25147;52.142;9.960;2023-03-25T04:23:44;4.00;;;1.52;;
39442;SDS011;25147;52.142;9.960;2023-03-25T04:26:11;4.82;;;1.63;;
39442;SDS011;25147;52.142;9.960;2023-03-25T04:28:39;6.30;;;1.70;;
39442;SDS011;25147;52.142;9.960;2023-03-25T04:31:09;4.75;;;1.60;;
39442;SDS011;25147;52.142;9.960;2023-03-25T04:33:39;5.85;;;1.73;;
39442;SDS011;25147;52.142;9.960;2023-03-25T04:36:06;3.97;;;1.50;;
39442;SDS011;25147;52.142;9.960;2023-03-25T04:38:35;3.20;;;1.30;;
39442;SDS011;25147;52.142;9.960;2023-03-25T04:41:01;5.03;;;1.85;;
39442;SDS011;25147;52.142;9.960;2023-03-25T04:43:31;4.30;;;1.50;;
39442;SDS011;25147;52.142;9.960;2023-03-25T04:45:59;3.15;;;1.63;;
39442;SDS011;25147;52.142;9.960;2023-03-25T04:48:27;3.55;;;1.38;;
39442;SDS011;25147;52.142;9.960;2023-03-25T04:50:56;3.25;;;1.75;;
39442;SDS011;25147;52.142;9.960;2023-03-25T04:53:23;2.83;;;1.50;;
39442;SDS011;25147;52.142;9.960;2023-03-25T04:55:50;5.05;;;1.98;;
39442;SDS011;25147;52.142;9.960;2023-03-25T04:58:16;5.47;;;1.75;;
39442;SDS011;25147;52.142;9.960;2023-03-25T05:00:43;2.10;;;1.60;;
39442;SDS011;25147;52.142;9.960;2023-03-25T05:03:13;5.38;;;1.90;;
39442;SDS011;25147;52.142;9.960;2023-03-25T05:05:39;4.32;;;2.20;;
39442;SDS011;25147;52.142;9.960;2023-03-25T05:08:06;4.15;;;1.92;;
39442;SDS011;25147;52.142;9.960;2023-03-25T05:10:33;2.05;;;1.80;;
39442;SDS011;25147;52.142;9.960;2023-03-25T05:13:02;5.53;;;2.28;;
39442;SDS011;25147;52.142;9.960;2023-03-25T05:15:31;4.05;;;2.05;;
39442;SDS011;25147;52.142;9.960;2023-03-25T05:17:59;6.43;;;2.17;;
39442;SDS011;25147;52.142;9.960;2023-03-25T05:20:28;4.05;;;1.98;;
39442;SDS011;25147;52.142;9.960;2023-03-25T05:22:57;4.70;;;2.00;;
39442;SDS011;25147;52.142;9.960;2023-03-25T05:25:23;4.18;;;1.77;;
39442;SDS011;25147;52.142;9.960;2023-03-25T05:27:50;3.17;;;1.95;;
39442;SDS011;25147;52.142;9.960;2023-03-25T05:30:16;4.80;;;2.00;;
39442;SDS011;25147;52.142;9.960;2023-03-25T05:32:43;4.70;;;2.00;;
39442;SDS011;25147;52.142;9.960;2023-03-25T05:35:14;3.97;;;1.60;;
39442;SDS011;25147;52.142;9.960;2023-03-25T05:37:42;3.85;;;1.90;;
39442;SDS011;25147;52.142;9.960;2023-03-25T05:40:09;5.38;;;2.22;;
39442;SDS011;25147;52.142;9.960;2023-03-25T05:42:36;3.85;;;2.17;;
39442;SDS011;25147;52.142;9.960;2023-03-25T05:45:03;4.28;;;1.83;;
39442;SDS011;25147;52.142;9.960;2023-03-25T05:47:30;3.78;;;1.95;;
39442;SDS011;25147;52.142;9.960;2023-03-25T05:49:56;3.42;;;2.28;;
39442;SDS011;25147;52.142;9.960;2023-03-25T05:52:24;5.65;;;1.98;;
39442;SDS011;25147;52.142;9.960;2023-03-25T05:54:52;5.57;;;2.17;;
39442;SDS011;25147;52.142;9.960;2023-03-25T05:57:19;4.85;;;2.05;;
39442;SDS011;25147;52.142;9.960;2023-03-25T05:59:46;4.70;;;1.90;;
39442;SDS011;25147;52.142;9.960;2023-03-25T06:02:13;5.35;;;2.03;;
39442;SDS011;25147;52.142;9.960;2023-03-25T06:04:41;2.42;;;2.15;;
39442;SDS011;25147;52.142;9.960;2023-03-25T06:07:08;3.50;;;1.65;;
39442;SDS011;25147;52.142;9.960;2023-03-25T06:09:39;4.97;;;1.73;;
39442;SDS011;25147;52.142;9.960;2023-03-25T06:12:11;3.10;;;2.00;;
39442;SDS011;25147;52.142;9.960;2023-03-25T06:14:38;2.58;;;2.00;;
39442;SDS011;25147;52.142;9.960;2023-03-25T06:17:07;3.10;;;1.98;;
39442;SDS011;25147;52.142;9.960;2023-03-25T06:19:34;2.97;;;1.88;;
39442;SDS011;25147;52.142;9.960;2023-03-25T06:22:03;4.25;;;1.92;;
39442;SDS011;25147;52.142;9.960;2023-03-25T06:24:30;2.92;;;1.77;;
39442;SDS011;25147;52.142;9.960;2023-03-25T06:26:56;4.95;;;1.92;;
39442;SDS011;25147;52.142;9.960;2023-03-25T06:29:24;4.97;;;1.95;;
39442;SDS011;25147;52.142;9.960;2023-03-25T06:31:51;3.00;;;1.70;;
39442;SDS011;25147;52.142;9.960;2023-03-25T06:34:17;2.70;;;1.70;;
39442;SDS011;25147;52.142;9.960;2023-03-25T06:36:44;3.35;;;1.30;;
39442;SDS011;25147;52.142;9.960;2023-03-25T06:39:14;2.70;;;1.67;;
39442;SDS011;25147;52.142;9.960;2023-03-25T06:41:40;3.10;;;1.70;;
39442;SDS011;25147;52.142;9.960;2023-03-25T06:44:07;3.97;;;1.58;;
39442;SDS011;25147;52.142;9.960;2023-03-25T06:46:35;2.50;;;1.45;;
39442;SDS011;25147;52.142;9.960;2023-03-25T06:49:01;2.97;;;1.70;;
39442;SDS011;25147;52.142;9.960;2023-03-25T06:51:28;3.20;;;1.65;;
39442;SDS011;25147;52.142;9.960;2023-03-25T06:53:55;3.70;;;1.60;;
39442;SDS011;25147;52.142;9.960;2023-03-25T06:56:21;1.90;;;1.63;;
39442;SDS011;25147;52.142;9.960;2023-03-25T06:58:48;4.07;;;1.50;;
39442;SDS011;25147;52.142;9.960;2023-03-25T07:01:14;3.33;;;1.20;;
39442;SDS011;25147;52.142;9.960;2023-03-25T07:03:42;2.70;;;2.00;;
39442;SDS011;25147;52.142;9.960;2023-03-25T07:06:10;1.70;;;1.38;;
39442;SDS011;25147;52.142;9.960;2023-03-25T07:08:41;2.63;;;1.40;;
39442;SDS011;25147;52.142;9.960;2023-03-25T07:11:08;1.10;;;1.10;;
39442;SDS011;25147;52.142;9.960;2023-03-25T07:13:37;3.00;;;1.48;;
39442;SDS011;25147;52.142;9.960;2023-03-25T07:16:04;4.28;;;1.40;;
39442;SDS011;25147;52.142;9.960;2023-03-25T07:18:31;3.38;;;1.77;;
39442;SDS011;25147;52.142;9.960;2023-03-25T07:20:59;1.70;;;1.20;;
39442;SDS011;25147;52.142;9.960;2023-03-25T07:23:26;3.08;;;1.50;;
39442;SDS011;25147;52.142;9.960;2023-03-25T07:25:53;2.28;;;1.50;;
39442;SDS011;25147;52.142;9.960;2023-03-25T07:28:20;3.95;;;1.85;;
39442;SDS011;25147;52.142;9.960;2023-03-25T07:30:47;4.30;;;1.60;;
39442;SDS011;25147;52.142;9.960;2023-03-25T07:33:14;2.67;;;1.38;;
39442;SDS011;25147;52.142;9.960;2023-03-25T07:35:41;3.58;;;1.60;;
39442;SDS011;25147;52.142;9.960;2023-03-25T07:38:09;2.58;;;1.48;;
39442;SDS011;25147;52.142;9.960;2023-03-25T07:40:36;3.95;;;1.40;;
39442;SDS011;25147;52.142;9.960;2023-03-25T07:43:03;2.42;;;1.48;;
39442;SDS011;25147;52.142;9.960;2023-03-25T07:45:30;3.72;;;1.65;;
39442;SDS011;25147;52.142;9.960;2023-03-25T07:47:58;4.15;;;1.48;;
39442;SDS011;25147;52.142;9.960;2023-03-25T07:50:25;3.38;;;1.80;;
39442;SDS011;25147;52.142;9.960;2023-03-25T07:52:52;1.73;;;1.40;;
39442;SDS011;25147;52.142;9.960;2023-03-25T07:55:20;2.97;;;1.60;;
39442;SDS011;25147;52.142;9.960;2023-03-25T07:57:47;5.72;;;1.55;;
39442;SDS011;25147;52.142;9.960;2023-03-25T08:00:13;3.92;;;1.58;;
39442;SDS011;25147;52.142;9.960;2023-03-25T08:02:40;1.85;;;1.40;;
39442;SDS011;25147;52.142;9.960;2023-03-25T08:05:07;3.47;;;1.88;;
39442;SDS011;25147;52.142;9.960;2023-03-25T08:07:34;2.35;;;1.35;;
39442;SDS011;25147;52.142;9.960;2023-03-25T08:10:01;2.30;;;0.93;;
39442;SDS011;25147;52.142;9.960;2023-03-25T08:12:29;2.97;;;1.52;;
39442;SDS011;25147;52.142;9.960;2023-03-25T08:14:55;2.50;;;1.23;;
39442;SDS011;25147;52.142;9.960;2023-03-25T08:17:24;2.38;;;1.27;;
39442;SDS011;25147;52.142;9.960;2023-03-25T08:19:50;5.32;;;2.10;;
39442;SDS011;25147;52.142;9.960;2023-03-25T08:22:17;2.15;;;1.42;;
39442;SDS011;25147;52.142;9.960;2023-03-25T08:24:43;3.83;;;1.25;;
39442;SDS011;25147;52.142;9.960;2023-03-25T08:27:10;1.58;;;1.30;;
39442;SDS011;25147;52.142;9.960;2023-03-25T08:29:38;3.30;;;1.42;;
39442;SDS011;25147;52.142;9.960;2023-03-25T08:32:05;2.63;;;1.40;;
39442;SDS011;25147;52.142;9.960;2023-03-25T08:34:32;3.15;;;1.30;;
39442;SDS011;25147;52.142;9.960;2023-03-25T08:37:03;3.42;;;1.42;;
39442;SDS011;25147;52.142;9.960;2023-03-25T08:39:31;4.03;;;1.42;;
39442;SDS011;25147;52.142;9.960;2023-03-25T08:42:03;2.28;;;1.08;;
39442;SDS011;25147;52.142;9.960;2023-03-25T08:44:31;1.55;;;1.10;;
39442;SDS011;25147;52.142;9.960;2023-03-25T08:46:59;2.58;;;1.15;;
39442;SDS011;25147;52.142;9.960;2023-03-25T08:49:26;2.35;;;1.42;;
39442;SDS011;25147;52.142;9.960;2023-03-25T08:51:53;2.97;;;1.33;;
39442;SDS011;25147;52.142;9.960;2023-03-25T08:54:21;4.70;;;1.50;;
39442;SDS011;25147;52.142;9.960;2023-03-25T08:56:48;3.03;;;1.33;;
39442;SDS011;25147;52.142;9.960;2023-03-25T08:59:15;3.45;;;1.20;;
39442;SDS011;25147;52.142;9.960;2023-03-25T09:01:41;1.98;;;0.95;;
39442;SDS011;25147;52.142;9.960;2023-03-25T09:04:10;2.17;;;1.02;;
39442;SDS011;25147;52.142;9.960;2023-03-25T09:06:36;1.75;;;0.90;;
39442;SDS011;25147;52.142;9.960;2023-03-25T09:09:04;2.70;;;1.10;;
39442;SDS011;25147;52.142;9.960;2023-03-25T09:11:33;1.98;;;1.10;;
39442;SDS011;25147;52.142;9.960;2023-03-25T09:14:00;3.63;;;0.82;;
39442;SDS011;25147;52.142;9.960;2023-03-25T09:16:28;2.67;;;1.10;;
39442;SDS011;25147;52.142;9.960;2023-03-25T09:18:56;2.15;;;1.23;;
39442;SDS011;25147;52.142;9.960;2023-03-25T09:21:24;3.63;;;0.85;;
39442;SDS011;25147;52.142;9.960;2023-03-25T09:23:50;1.77;;;1.00;;
39442;SDS011;25147;52.142;9.960;2023-03-25T09:26:17;2.22;;;0.98;;
39442;SDS011;25147;52.142;9.960;2023-03-25T09:28:44;2.78;;;1.00;;
39442;SDS011;25147;52.142;9.960;2023-03-25T09:31:12;1.60;;;0.70;;
39442;SDS011;25147;52.142;9.960;2023-03-25T09:33:39;1.83;;;1.02;;
39442;SDS011;25147;52.142;9.960;2023-03-25T09:36:06;4.32;;;1.27;;
39442;SDS011;25147;52.142;9.960;2023-03-25T09:38:34;4.63;;;1.10;;
39442;SDS011;25147;52.142;9.960;2023-03-25T09:41:02;2.53;;;1.00;;
39442;SDS011;25147;52.142;9.960;2023-03-25T09:43:49;2.15;;;1.05;;
39442;SDS011;25147;52.142;9.960;2023-03-25T09:46:20;2.08;;;1.10;;
39442;SDS011;25147;52.142;9.960;2023-03-25T09:48:48;3.95;;;1.17;;
39442;SDS011;25147;52.142;9.960;2023-03-25T09:51:18;3.45;;;1.23;;
39442;SDS011;25147;52.142;9.960;2023-03-25T09:53:50;2.20;;;0.90;;
39442;SDS011;25147;52.142;9.960;2023-03-25T09:56:22;3.45;;;1.35;;
39442;SDS011;25147;52.142;9.960;2023-03-25T09:58:53;2.85;;;1.13;;
39442;SDS011;25147;52.142;9.960;2023-03-25T10:01:26;5.70;;;1.15;;
39442;SDS011;25147;52.142;9.960;2023-03-25T10:04:08;5.93;;;1.08;;
39442;SDS011;25147;52.142;9.960;2023-03-25T10:06:46;2.22;;;1.08;;
39442;SDS011;25147;52.142;9.960;2023-03-25T10:09:29;3.17;;;1.10;;
39442;SDS011;25147;52.142;9.960;2023-03-25T10:12:04;3.08;;;1.15;;
39442;SDS011;25147;52.142;9.960;2023-03-25T10:14:44;2.97;;;1.27;;
39442;SDS011;25147;52.142;9.960;2023-03-25T10:17:24;1.67;;;1.20;;
39442;SDS011;25147;52.142;9.960;2023-03-25T10:20:00;2.60;;;1.27;;
39442;SDS011;25147;52.142;9.960;2023-03-25T10:22:38;2.70;;;1.17;;
39442;SDS011;25147;52.142;9.960;2023-03-25T10:25:21;5.38;;;1.48;;
39442;SDS011;25147;52.142;9.960;2023-03-25T10:27:52;3.65;;;1.40;;
39442;SDS011;25147;52.142;9.960;2023-03-25T10:30:21;1.55;;;1.30;;
39442;SDS011;25147;52.142;9.960;2023-03-25T10:32:52;3.15;;;1.25;;
39442;SDS011;25147;52.142;9.960;2023-03-25T10:35:22;3.38;;;1.70;;
39442;SDS011;25147;52.142;9.960;2023-03-25T10:37:56;2.17;;;1.27;;
39442;SDS011;25147;52.142;9.960;2023-03-25T10:40:27;2.25;;;1.50;;
39442;SDS011;25147;52.142;9.960;2023-03-25T10:43:01;3.20;;;1.50;;
39442;SDS011;25147;52.142;9.960;2023-03-25T10:45:38;2.50;;;1.60;;
39442;SDS011;25147;52.142;9.960;2023-03-25T10:48:08;3.20;;;1.40;;
39442;SDS011;25147;52.142;9.960;2023-03-25T10:50:38;1.52;;;1.10;;
39442;SDS011;25147;52.142;9.960;2023-03-25T10:53:08;4.53;;;1.50;;
39442;SDS011;25147;52.142;9.960;2023-03-25T10:55:45;3.88;;;1.70;;
39442;SDS011;25147;52.142;9.960;2023-03-25T10:58:17;3.05;;;1.23;;
39442;SDS011;25147;52.142;9.960;2023-03-25T11:00:44;4.13;;;1.55;;
39442;SDS011;25147;52.142;9.960;2023-03-25T11:03:11;4.78;;;1.67;;
39442;SDS011;25147;52.142;9.960;2023-03-25T11:05:44;2.45;;;1.52;;
39442;SDS011;25147;52.142;9.960;2023-03-25T11:08:12;5.13;;;1.77;;
39442;SDS011;25147;52.142;9.960;2023-03-25T11:10:40;5.10;;;1.58;;
39442;SDS011;25147;52.142;9.960;2023-03-25T11:13:15;5.07;;;2.08;;
39442;SDS011;25147;52.142;9.960;2023-03-25T11:15:46;4.70;;;1.70;;
39442;SDS011;25147;52.142;9.960;2023-03-25T11:18:15;5.78;;;1.92;;
39442;SDS011;25147;52.142;9.960;2023-03-25T11:20:47;5.07;;;1.83;;
39442;SDS011;25147;52.142;9.960;2023-03-25T11:23:18;4.18;;;1.70;;
39442;SDS011;25147;52.142;9.960;2023-03-25T11:25:51;5.47;;;1.60;;
39442;SDS011;25147;52.142;9.960;2023-03-25T11:28:20;7.28;;;2.00;;
39442;SDS011;25147;52.142;9.960;2023-03-25T11:31:08;5.05;;;2.42;;
39442;SDS011;25147;52.142;9.960;2023-03-25T11:33:39;3.80;;;1.83;;
39442;SDS011;25147;52.142;9.960;2023-03-25T11:36:21;4.18;;;1.80;;
39442;SDS011;25147;52.142;9.960;2023-03-25T11:38:55;4.82;;;1.90;;
39442;SDS011;25147;52.142;9.960;2023-03-25T11:41:24;5.43;;;2.30;;
39442;SDS011;25147;52.142;9.960;2023-03-25T11:43:53;5.35;;;2.00;;
39442;SDS011;25147;52.142;9.960;2023-03-25T11:46:21;5.68;;;2.40;;
39442;SDS011;25147;52.142;9.960;2023-03-25T11:48:48;8.38;;;2.65;;
39442;SDS011;25147;52.142;9.960;2023-03-25T11:51:18;4.53;;;3.45;;
39442;SDS011;25147;52.142;9.960;2023-03-25T11:53:47;4.93;;;1.90;;
39442;SDS011;25147;52.142;9.960;2023-03-25T11:56:20;3.85;;;1.90;;
39442;SDS011;25147;52.142;9.960;2023-03-25T11:58:54;3.15;;;1.77;;
39442;SDS011;25147;52.142;9.960;2023-03-25T12:01:23;4.55;;;1.70;;
39442;SDS011;25147;52.142;9.960;2023-03-25T12:04:03;3.75;;;2.00;;
39442;SDS011;25147;52.142;9.960;2023-03-25T12:06:32;5.15;;;1.80;;
39442;SDS011;25147;52.142;9.960;2023-03-25T12:08:59;3.25;;;1.85;;
39442;SDS011;25147;52.142;9.960;2023-03-25T12:11:27;4.22;;;1.70;;
39442;SDS011;25147;52.142;9.960;2023-03-25T12:14:07;3.30;;;1.73;;
39442;SDS011;25147;52.142;9.960;2023-03-25T12:16:46;3.70;;;1.58;;
39442;SDS011;25147;52.142;9.960;2023-03-25T12:19:22;6.18;;;1.70;;
39442;SDS011;25147;52.142;9.960;2023-03-25T12:22:00;4.18;;;1.98;;
39442;SDS011;25147;52.142;9.960;2023-03-25T12:24:46;7.05;;;1.95;;
39442;SDS011;25147;52.142;9.960;2023-03-25T12:27:26;3.72;;;1.73;;
39442;SDS011;25147;52.142;9.960;2023-03-25T12:30:05;4.75;;;2.03;;
39442;SDS011;25147;52.142;9.960;2023-03-25T12:32:44;3.40;;;2.00;;
39442;SDS011;25147;52.142;9.960;2023-03-25T12:35:24;4.32;;;1.83;;
39442;SDS011;25147;52.142;9.960;2023-03-25T12:38:05;5.80;;;2.35;;
39442;SDS011;25147;52.142;9.960;2023-03-25T12:40:45;5.10;;;2.03;;
39442;SDS011;25147;52.142;9.960;2023-03-25T12:43:28;7.03;;;2.03;;
39442;SDS011;25147;52.142;9.960;2023-03-25T12:46:03;6.47;;;2.03;;
39442;SDS011;25147;52.142;9.960;2023-03-25T12:48:44;7.47;;;2.13;;
39442;SDS011;25147;52.142;9.960;2023-03-25T12:51:32;4.38;;;2.42;;
39442;SDS011;25147;52.142;9.960;2023-03-25T12:54:09;6.78;;;2.05;;
39442;SDS011;25147;52.142;9.960;2023-03-25T12:56:51;4.93;;;1.85;;
39442;SDS011;25147;52.142;9.960;2023-03-25T12:59:34;4.35;;;2.22;;
39442;SDS011;25147;52.142;9.960;2023-03-25T13:02:25;2.45;;;1.77;;
39442;SDS011;25147;52.142;9.960;2023-03-25T13:05:11;4.25;;;2.25;;
39442;SDS011;25147;52.142;9.960;2023-03-25T13:07:43;4.28;;;1.70;;
39442;SDS011;25147;52.142;9.960;2023-03-25T13:10:16;6.93;;;2.28;;
39442;SDS011;25147;52.142;9.960;2023-03-25T13:12:45;3.28;;;1.75;;
39442;SDS011;25147;52.142;9.960;2023-03-25T13:15:16;4.38;;;1.83;;
39442;SDS011;25147;52.142;9.960;2023-03-25T13:17:47;4.90;;;1.65;;
39442;SDS011;25147;52.142;9.960;2023-03-25T13:20:18;3.22;;;1.70;;
39442;SDS011;25147;52.142;9.960;2023-03-25T13:22:49;5.40;;;1.65;;
39442;SDS011;25147;52.142;9.960;2023-03-25T13:25:23;4.45;;;1.58;;
39442;SDS011;25147;52.142;9.960;2023-03-25T13:27:54;5.93;;;1.70;;
39442;SDS011;25147;52.142;9.960;2023-03-25T13:30:28;2.38;;;1.50;;
39442;SDS011;25147;52.142;9.960;2023-03-25T13:32:59;2.25;;;1.40;;
39442;SDS011;25147;52.142;9.960;2023-03-25T13:35:36;3.97;;;1.38;;
39442;SDS011;25147;52.142;9.960;2023-03-25T13:38:10;2.80;;;1.30;;
39442;SDS011;25147;52.142;9.960;2023-03-25T13:40:43;6.20;;;1.60;;
39442;SDS011;25147;52.142;9.960;2023-03-25T13:43:16;3.13;;;1.55;;
39442;SDS011;25147;52.142;9.960;2023-03-25T13:45:50;4.22;;;1.48;;
39442;SDS011;25147;52.142;9.960;2023-03-25T13:48:25;5.93;;;1.30;;
39442;SDS011;25147;52.142;9.960;2023-03-25T13:51:00;2.97;;;1.48;;
39442;SDS011;25147;52.142;9.960;2023-03-25T13:53:29;1.35;;;1.13;;
39442;SDS011;25147;52.142;9.960;2023-03-25T13:56:10;4.35;;;1.70;;
39442;SDS011;25147;52.142;9.960;2023-03-25T13:58:57;4.07;;;1.60;;
39442;SDS011;25147;52.142;9.960;2023-03-25T14:01:40;3.60;;;1.40;;
39442;SDS011;25147;52.142;9.960;2023-03-25T14:04:30;5.43;;;1.55;;
39442;SDS011;25147;52.142;9.960;2023-03-25T14:10:24;2.55;;;1.45;;
39442;SDS011;25147;52.142;9.960;2023-03-25T14:13:05;6.13;;;1.75;;
39442;SDS011;25147;52.142;9.960;2023-03-25T14:15:40;2.88;;;1.55;;
39442;SDS011;25147;52.142;9.960;2023-03-25T14:18:12;2.72;;;1.60;;
39442;SDS011;25147;52.142;9.960;2023-03-25T14:20:44;7.82;;;2.20;;
39442;SDS011;25147;52.142;9.960;2023-03-25T14:23:13;3.88;;;1.40;;
39442;SDS011;25147;52.142;9.960;2023-03-25T14:25:44;3.53;;;1.40;;
39442;SDS011;25147;52.142;9.960;2023-03-25T14:28:14;4.32;;;1.50;;
39442;SDS011;25147;52.142;9.960;2023-03-25T14:30:54;4.50;;;1.45;;
39442;SDS011;25147;52.142;9.960;2023-03-25T14:37:08;4.03;;;1.70;;
39442;SDS011;25147;52.142;9.960;2023-03-25T14:39:36;3.53;;;1.50;;
39442;SDS011;25147;52.142;9.960;2023-03-25T14:42:08;3.75;;;1.80;;
39442;SDS011;25147;52.142;9.960;2023-03-25T14:44:38;3.97;;;1.73;;
39442;SDS011;25147;52.142;9.960;2023-03-25T14:47:28;3.75;;;1.77;;
39442;SDS011;25147;52.142;9.960;2023-03-25T14:50:04;4.28;;;1.85;;
39442;SDS011;25147;52.142;9.960;2023-03-25T14:52:53;4.40;;;1.60;;
39442;SDS011;25147;52.142;9.960;2023-03-25T14:55:25;7.50;;;2.30;;
39442;SDS011;25147;52.142;9.960;2023-03-25T14:57:55;3.80;;;1.98;;
39442;SDS011;25147;52.142;9.960;2023-03-25T15:00:25;3.28;;;1.30;;
39442;SDS011;25147;52.142;9.960;2023-03-25T15:02:58;5.45;;;1.88;;
39442;SDS011;25147;52.142;9.960;2023-03-25T15:05:27;6.25;;;1.60;;
39442;SDS011;25147;52.142;9.960;2023-03-25T15:07:59;4.05;;;1.70;;
39442;SDS011;25147;52.142;9.960;2023-03-25T15:10:37;5.63;;;1.77;;
39442;SDS011;25147;52.142;9.960;2023-03-25T15:13:07;4.10;;;1.63;;
39442;SDS011;25147;52.142;9.960;2023-03-25T15:15:52;3.47;;;1.50;;
39442;SDS011;25147;52.142;9.960;2023-03-25T15:21:25;3.63;;;1.60;;
39442;SDS011;25147;52.142;9.960;2023-03-25T15:24:06;7.72;;;1.83;;
39442;SDS011;25147;52.142;9.960;2023-03-25T15:26:36;4.78;;;1.92;;